Time;durP1;ratioP1;P1;durP2;ratioP2;P2;SDS_P1;SDS_P2;PMS_P1;PMS_P2;Temp;Humidity;BMP_temperature;BMP_pressure;BME280_temperature;BME280_humidity;BME280_pressure;Samples;Min_cycle;Max_cycle;Signal;HPM_P1;HPM_P2
2021/05/27 00:02:32;;;;;;;;;37.67;34.67;;;;;19.95;71.21;101461.41;5132982;27;9502;-73
2021/05/27 00:05:01;;;;;;;;;42.67;36.33;;;;;20.10;70.06;101460.44;5133960;27;9317;-73
2021/05/27 00:07:56;;;;;;;;;40.00;36.25;;;;;19.86;70.48;101472.06;5132753;27;9350;-73
2021/05/27 00:10:30;;;;;;;;;38.00;34.33;;;;;20.02;70.01;101469.13;5134246;27;9688;-73
2021/05/27 00:13:26;;;;;;;;;40.67;36.67;;;;;20.02;70.18;101467.16;5132995;27;9382;-74
2021/05/27 00:16:22;;;;;;;;;35.33;33.33;;;;;19.90;70.73;101481.38;5133724;27;9465;-74
2021/05/27 00:19:19;;;;;;;;;40.67;36.67;;;;;20.14;69.87;101480.16;5132826;27;9306;-74
2021/05/27 00:22:15;;;;;;;;;33.00;31.00;;;;;20.04;69.23;101475.19;5132392;27;9372;-73
2021/05/27 00:25:13;;;;;;;;;44.67;38.67;;;;;19.81;69.69;101486.44;5132796;27;9341;-74
2021/05/27 00:28:08;;;;;;;;;41.25;37.00;;;;;19.87;70.03;101476.53;5133001;27;9279;-74
2021/05/27 00:31:06;;;;;;;;;39.67;36.00;;;;;20.00;70.59;101475.91;5132908;27;9675;-74
2021/05/27 00:34:02;;;;;;;;;41.50;37.00;;;;;20.01;69.24;101473.91;5133515;27;9308;-74
2021/05/27 00:36:58;;;;;;;;;39.33;34.33;;;;;19.85;69.62;101479.69;5118875;27;9463;-74
2021/05/27 00:39:54;;;;;;;;;40.00;36.33;;;;;19.79;70.02;101480.41;5132781;27;9349;-74
2021/05/27 00:42:49;;;;;;;;;47.75;41.00;;;;;19.69;70.98;101487.41;5132593;27;9437;-74
2021/05/27 00:45:45;;;;;;;;;42.00;37.00;;;;;19.58;71.49;101487.25;5132643;27;9692;-74
2021/05/27 00:48:57;;;;;;;;;47.25;40.25;;;;;19.38;72.27;101480.00;5134071;27;9551;-74
2021/05/27 00:51:54;;;;;;;;;41.00;36.00;;;;;19.29;72.73;101473.81;5135362;27;9452;-74
2021/05/27 00:54:50;;;;;;;;;43.75;38.00;;;;;19.42;72.38;101481.72;5136150;27;9617;-74
2021/05/27 00:57:46;;;;;;;;;42.75;37.75;;;;;19.34;72.17;101479.16;5136310;27;9580;-74
2021/05/27 01:00:42;;;;;;;;;47.50;40.00;;;;;19.29;72.25;101482.25;5136247;27;9576;-73
2021/05/27 01:03:37;;;;;;;;;42.00;37.25;;;;;19.28;73.24;101472.22;5122380;27;9538;-74
2021/05/27 01:06:33;;;;;;;;;46.00;39.50;;;;;19.27;72.35;101484.63;5122421;27;9515;-74
2021/05/27 01:09:29;;;;;;;;;34.00;32.00;;;;;19.16;73.04;101476.78;5133717;27;9951;-74
2021/05/27 01:12:25;;;;;;;;;46.75;40.25;;;;;19.23;73.28;101478.13;5123597;27;9816;-74
2021/05/27 01:18:01;;;;;;;;;49.00;41.25;;;;;19.50;72.07;101482.66;5116675;28;9904;-74
2021/05/27 01:20:37;;;;;;;;;51.00;43.00;;;;;19.49;71.93;101480.22;5114242;28;10569;-73
2021/05/27 01:23:33;;;;;;;;;47.00;39.75;;;;;19.33;72.64;101481.13;5115950;28;9991;-74
2021/05/27 01:26:29;;;;;;;;;52.00;44.50;;;;;19.20;73.36;101482.47;5114300;28;9888;-74
2021/05/27 01:29:27;;;;;;;;;52.00;43.50;;;;;19.05;73.79;101489.78;5129661;27;11012;-73
2021/05/27 01:32:22;;;;;;;;;50.00;42.25;;;;;18.78;74.69;101485.19;5122230;27;10833;-74
2021/05/27 01:35:21;;;;;;;;;51.75;43.75;;;;;18.98;73.97;101495.25;5135476;27;10115;-74
2021/05/27 01:38:20;;;;;;;;;54.25;46.00;;;;;19.00;74.02;101490.06;5135383;27;10243;-74
2021/05/27 01:41:18;;;;;;;;;52.00;44.00;;;;;19.10;74.51;101483.09;5135679;27;10349;-74
2021/05/27 01:44:14;;;;;;;;;51.25;43.75;;;;;19.05;74.33;101488.97;5135188;27;10069;-74
2021/05/27 01:46:42;;;;;;;;;58.00;47.00;;;;;19.03;74.56;101485.75;5136670;27;10084;-74
2021/05/27 01:49:41;;;;;;;;;57.50;48.25;;;;;19.05;74.28;101488.97;5134359;27;10170;-73
2021/05/27 01:52:37;;;;;;;;;59.00;49.75;;;;;18.83;75.08;101482.13;5124041;27;10458;-74
2021/05/27 01:55:34;;;;;;;;;62.50;49.75;;;;;18.95;74.69;101490.38;5101063;28;10475;-74
2021/05/27 01:58:29;;;;;;;;;57.50;48.00;;;;;18.81;74.90;101487.28;5114111;28;10515;-74
2021/05/27 02:01:28;;;;;;;;;56.75;47.50;;;;;18.76;75.29;101487.56;5114355;28;10671;-74
2021/05/27 02:04:23;;;;;;;;;59.50;48.75;;;;;18.75;75.11;101481.16;5114683;28;10769;-73
2021/05/27 02:07:19;;;;;;;;;59.75;48.75;;;;;18.79;74.98;101486.84;5114338;28;10648;-74
2021/05/27 02:10:15;;;;;;;;;58.75;48.50;;;;;18.71;75.04;101487.84;5114324;28;10590;-74
2021/05/27 02:13:11;;;;;;;;;62.50;50.50;;;;;18.76;75.13;101493.97;5114271;28;10522;-74
2021/05/27 02:16:07;;;;;;;;;58.00;48.00;;;;;18.74;74.68;101490.75;5114704;28;10635;-74
2021/05/27 02:19:04;;;;;;;;;58.50;48.25;;;;;18.66;75.04;101482.56;5114547;28;10568;-74
2021/05/27 02:22:01;;;;;;;;;61.50;49.00;;;;;18.68;75.25;101489.41;5114805;28;10625;-74
2021/05/27 02:24:57;;;;;;;;;63.25;51.00;;;;;18.61;75.94;101490.03;5113931;28;10533;-73
2021/05/27 02:27:55;;;;;;;;;58.00;48.00;;;;;18.42;76.99;101490.00;5113867;28;10548;-73
2021/05/27 02:30:51;;;;;;;;;56.50;47.00;;;;;18.39;76.98;101489.91;5100313;28;11380;-74
2021/05/27 02:33:48;;;;;;;;;60.25;49.25;;;;;18.41;76.96;101485.56;5128648;27;10345;-74
2021/05/27 02:36:44;;;;;;;;;58.50;48.25;;;;;18.46;76.60;101490.06;5120347;27;10490;-72
2021/05/27 02:39:42;;;;;;;;;60.00;48.00;;;;;18.48;76.58;101493.31;5134586;27;10620;-73
2021/05/27 02:42:38;;;;;;;;;57.50;47.75;;;;;18.32;77.56;101490.53;5120536;27;10507;-73
2021/05/27 02:45:09;;;;;;;;;54.50;45.50;;;;;18.48;77.03;101498.91;5135486;27;10327;-73
2021/05/27 02:48:05;;;;;;;;;54.00;45.50;;;;;18.51;77.07;101501.81;5134299;27;10194;-73
2021/05/27 02:51:02;;;;;;;;;49.50;42.25;;;;;18.52;77.29;101499.81;5134072;27;10435;-73
2021/05/27 02:53:58;;;;;;;;;54.50;46.00;;;;;18.51;77.63;101510.22;5134178;27;10394;-72
2021/05/27 02:56:57;;;;;;;;;55.25;46.00;;;;;18.54;77.52;101503.88;5119830;27;11240;-73
2021/05/27 02:59:53;;;;;;;;;53.75;45.75;;;;;18.67;77.33;101501.78;5132376;27;11098;-73
2021/05/27 03:02:48;;;;;;;;;54.50;45.75;;;;;18.74;76.79;101506.75;5120378;27;10226;-73
2021/05/27 03:05:44;;;;;;;;;54.75;45.00;;;;;18.87;76.40;101509.03;5100382;28;10171;-73
2021/05/27 03:08:43;;;;;;;;;50.25;43.25;;;;;18.97;74.97;101516.06;5113264;28;10309;-73
2021/05/27 03:11:38;;;;;;;;;54.50;45.75;;;;;18.86;75.34;101515.84;5113694;28;10260;-72
2021/05/27 03:14:10;;;;;;;;;56.50;46.50;;;;;18.82;75.67;101512.13;5113611;28;11051;-73
2021/05/27 03:16:50;;;;;;;;;53.75;45.50;;;;;19.21;76.00;101508.53;5127664;27;10228;-73
2021/05/27 03:19:33;;;;;;;;;55.50;46.75;;;;;19.28;75.06;101508.66;5101708;27;10238;-72
2021/05/27 03:22:29;;;;;;;;;53.25;45.25;;;;;19.41;74.50;101508.13;5132473;27;11150;-73
2021/05/27 03:25:25;;;;;;;;;54.25;44.75;;;;;19.45;73.34;101511.00;5106493;28;10175;-73
2021/05/27 03:28:22;;;;;;;;;53.75;45.25;;;;;19.55;73.56;101513.22;5124443;27;10087;-73
2021/05/27 03:31:18;;;;;;;;;55.00;45.25;;;;;19.44;73.91;101518.59;5125696;27;10208;-73
2021/05/27 03:34:13;;;;;;;;;52.25;44.00;;;;;19.53;74.75;101507.13;5133164;27;10239;-73
2021/05/27 03:37:09;;;;;;;;;59.25;48.00;;;;;19.79;74.26;101506.47;5120046;27;10199;-73
2021/05/27 03:40:16;;;;;;;;;58.75;48.50;;;;;20.01;72.93;101504.81;5133728;27;10227;-73
2021/05/27 03:43:12;;;;;;;;;56.00;46.75;;;;;20.42;73.18;101507.88;5132824;27;10264;-73
2021/05/27 03:46:08;;;;;;;;;56.75;45.50;;;;;20.48;71.14;101504.41;5132967;27;9902;-73
2021/05/27 03:49:03;;;;;;;;;50.75;43.25;;;;;20.57;69.64;101506.94;5133472;27;9919;-72
2021/05/27 03:51:59;;;;;;;;;49.50;41.75;;;;;20.94;71.41;101500.59;5119637;27;9680;-73
2021/05/27 03:54:55;;;;;;;;;51.50;42.00;;;;;20.80;67.45;101504.03;5133476;27;9478;-73
2021/05/27 03:57:54;;;;;;;;;48.33;39.33;;;;;20.77;67.60;101504.78;5132837;27;9451;-73
2021/05/27 04:00:45;;;;;;;;;47.33;39.33;;;;;20.91;67.23;101507.78;5116045;27;9499;-73
2021/05/27 04:07:11;;;;;;;;;52.25;44.00;;;;;20.98;66.11;101509.88;5126034;27;9477;-73
2021/05/27 04:10:09;;;;;;;;;54.00;44.25;;;;;21.16;66.43;101507.28;5133359;27;9720;-73
2021/05/27 04:13:04;;;;;;;;;56.25;45.00;;;;;21.29;66.60;101515.13;5132814;27;10406;-74
2021/05/27 04:16:00;;;;;;;;;56.75;45.00;;;;;21.48;64.96;101502.06;5133092;27;9535;-78
2021/05/27 04:18:55;;;;;;;;;54.33;44.33;;;;;21.62;64.84;101505.84;5133380;27;9762;-79
2021/05/27 04:21:52;;;;;;;;;55.25;46.00;;;;;21.61;64.33;101507.00;5119753;27;9433;-78
2021/05/27 04:24:48;;;;;;;;;53.00;45.00;;;;;21.56;65.00;101506.56;5120832;27;9635;-78
2021/05/27 04:27:17;;;;;;;;;55.75;45.50;;;;;21.72;65.48;101504.31;5138466;27;9465;-78
2021/05/27 04:29:47;;;;;;;;;55.00;44.75;;;;;21.70;64.57;101505.88;5138706;27;9508;-77
2021/05/27 04:35:01;;;;;;;;;55.33;44.00;;;;;21.98;63.81;101502.53;5138499;27;9304;-78
2021/05/27 04:37:30;;;;;;;;;49.33;42.00;;;;;22.33;63.81;101505.66;5120267;27;10011;-81
2021/05/27 04:39:58;;;;;;;;;51.67;44.00;;;;;22.35;63.08;101513.72;5120704;27;8948;-79
2021/05/27 04:42:27;;;;;;;;;53.33;44.00;;;;;22.52;62.72;101512.22;5138568;27;9141;-79
2021/05/27 04:44:55;;;;;;;;;42.25;37.25;;;;;22.55;60.21;101503.78;5120941;27;8990;-80
2021/05/27 04:47:23;;;;;;;;;48.75;41.00;;;;;22.66;59.21;101501.84;5120211;27;8918;-79
2021/05/27 04:49:51;;;;;;;;;48.25;41.25;;;;;22.85;61.08;101512.03;5138187;27;9643;-80
2021/05/27 04:52:39;;;;;;;;;42.25;36.75;;;;;22.95;59.57;101514.09;5138009;27;8862;-79
2021/05/27 04:55:10;;;;;;;;;46.50;39.75;;;;;23.06;59.35;101511.31;5138639;27;8843;-78
2021/05/27 04:57:38;;;;;;;;;46.75;39.50;;;;;23.32;58.75;101512.22;5138426;27;8839;-79
2021/05/27 05:00:12;;;;;;;;;48.00;38.75;;;;;23.57;58.40;101518.75;5137800;27;8839;-78
2021/05/27 05:02:41;;;;;;;;;47.25;38.50;;;;;23.51;58.33;101504.19;5119104;27;8854;-78
2021/05/27 05:05:11;;;;;;;;;48.00;40.25;;;;;23.74;58.32;101503.88;5119340;27;8858;-78
2021/05/27 05:07:41;;;;;;;;;41.75;35.25;;;;;23.92;54.56;101509.50;5119889;27;8827;-78
2021/05/27 05:10:11;;;;;;;;;30.00;28.00;;;;;23.92;52.92;101503.06;5119595;27;8869;-78
2021/05/27 05:12:46;;;;;;;;;32.00;30.25;;;;;24.04;53.00;101506.31;5137842;27;8835;-79
2021/05/27 05:15:31;;;;;;;;;26.50;26.25;;;;;24.25;52.28;101507.50;5120061;27;8885;-76
2021/05/27 05:18:03;;;;;;;;;29.00;28.75;;;;;24.50;52.27;101508.31;5119175;27;8849;-76
2021/05/27 05:20:41;;;;;;;;;36.00;32.75;;;;;24.67;52.84;101509.47;5118880;27;9589;-76
2021/05/27 05:23:36;;;;;;;;;27.75;27.75;;;;;24.88;49.54;101497.28;5135659;27;8843;-75
2021/05/27 05:26:33;;;;;;;;;40.75;35.25;;;;;25.06;50.83;101502.91;5134891;27;8813;-75
2021/05/27 05:29:31;;;;;;;;;48.75;41.25;;;;;24.95;52.35;101497.25;5126600;27;8835;-75
2021/05/27 05:32:01;;;;;;;;;33.50;30.75;;;;;25.17;50.40;101495.97;5123483;27;8827;-75
2021/05/27 05:34:57;;;;;;;;;49.75;40.50;;;;;25.36;52.52;101497.47;5106042;27;8846;-75
2021/05/27 05:37:28;;;;;;;;;25.75;24.75;;;;;25.31;46.79;101503.59;5135723;27;8896;-74
2021/05/27 05:40:26;;;;;;;;;32.00;30.75;;;;;25.29;47.56;101493.88;5122234;27;8955;-74
2021/05/27 05:42:56;;;;;;;;;24.50;24.50;;;;;25.48;47.75;101490.53;5118771;27;8853;-75
2021/05/27 05:45:51;;;;;;;;;48.75;42.00;;;;;25.59;45.63;101496.13;5135504;27;8937;-74
2021/05/27 05:48:19;;;;;;;;;53.50;44.00;;;;;25.63;46.43;101492.06;5137342;27;9591;-74
2021/05/27 05:51:15;;;;;;;;;42.75;37.00;;;;;25.81;45.83;101491.16;5121450;27;8847;-74
2021/05/27 05:54:10;;;;;;;;;38.50;32.50;;;;;25.77;45.70;101497.66;5131094;27;8821;-74
2021/05/27 05:56:38;;;;;;;;;20.20;19.60;;;;;26.14;44.27;101493.28;5117844;27;8847;-75
2021/05/27 05:59:35;;;;;;;;;24.40;24.40;;;;;26.12;45.21;101490.06;5133197;27;8859;-74
2021/05/27 06:02:34;;;;;;;;;16.60;16.60;;;;;26.24;44.44;101483.09;5134303;27;8830;-75
2021/05/27 06:05:30;;;;;;;;;21.20;21.20;;;;;26.39;43.87;101483.78;5120410;27;8811;-75
2021/05/27 06:08:01;;;;;;;;;20.60;20.60;;;;;26.53;43.57;101481.59;5115760;27;8839;-75
2021/05/27 06:10:32;;;;;;;;;20.80;20.80;;;;;26.72;43.33;101480.16;5134466;27;8831;-75
2021/05/27 06:13:01;;;;;;;;;18.60;17.60;;;;;26.96;43.49;101475.41;5129378;27;8917;-75
2021/05/27 06:15:30;;;;;;;;;18.80;18.80;;;;;27.02;41.58;101479.38;5114267;28;8855;-75
2021/05/27 06:18:00;;;;;;;;;17.00;17.00;;;;;27.23;41.31;101477.53;5110018;28;8840;-75
2021/05/27 06:20:30;;;;;;;;;17.20;17.20;;;;;27.40;41.54;101471.59;5113242;28;8862;-75
2021/05/27 06:23:26;;;;;;;;;18.80;18.80;;;;;27.59;41.27;101469.25;5112113;28;8856;-75
2021/05/27 06:26:21;;;;;;;;;23.40;23.40;;;;;27.70;41.91;101467.91;5113207;28;8917;-76
2021/05/27 06:28:50;;;;;;;;;54.00;44.75;;;;;27.69;43.93;101465.50;5113400;28;8935;-75
2021/05/27 06:31:25;;;;;;;;;32.20;31.00;;;;;27.60;44.05;101463.16;5102059;28;8957;-74
2021/05/27 06:33:54;;;;;;;;;41.50;34.75;;;;;27.89;43.03;101469.19;5112866;28;8854;-75
2021/05/27 06:36:50;;;;;;;;;33.00;30.60;;;;;27.73;42.13;101471.91;5107206;28;8858;-75
2021/05/27 06:39:18;;;;;;;;;34.00;30.80;;;;;27.80;42.64;101466.09;5095061;28;8819;-75
2021/05/27 06:42:17;;;;;;;;;25.40;24.00;;;;;27.96;41.56;101466.25;5109176;28;8816;-75
2021/05/27 06:44:59;;;;;;;;;27.20;26.20;;;;;28.00;40.21;101466.19;5106373;28;8860;-75
2021/05/27 06:47:55;;;;;;;;;24.20;23.80;;;;;28.37;39.40;101465.16;5110114;28;8863;-75
2021/05/27 06:50:51;;;;;;;;;21.80;21.80;;;;;28.44;38.33;101464.19;5093976;28;8843;-75
2021/05/27 06:53:46;;;;;;;;;20.40;20.40;;;;;28.44;38.67;101458.50;5094331;28;8847;-75
2021/05/27 06:56:15;;;;;;;;;19.60;18.80;;;;;28.19;39.74;101456.91;5094467;28;8839;-76
2021/05/27 06:59:13;;;;;;;;;16.00;16.00;;;;;28.41;39.83;101451.63;5094510;28;8828;-74
2021/05/27 07:02:09;;;;;;;;;21.40;21.20;;;;;28.56;39.11;101459.91;5113565;28;8808;-74
2021/05/27 07:05:06;;;;;;;;;16.20;16.20;;;;;28.96;39.58;101450.13;5095115;28;8812;-73
2021/05/27 07:07:34;;;;;;;;;15.60;15.60;;;;;28.89;39.42;101458.78;5106294;28;8912;-73
2021/05/27 07:10:05;;;;;;;;;15.00;15.00;;;;;29.01;38.87;101443.13;5094882;28;8921;-73
2021/05/27 07:13:04;;;;;;;;;32.40;28.20;;;;;29.23;39.29;101438.56;5119924;28;8837;-73
2021/05/27 07:16:00;;;;;;;;;17.20;15.80;;;;;29.52;39.18;101437.88;5102851;28;8898;-74
2021/05/27 07:18:57;;;;;;;;;19.80;19.80;;;;;29.69;39.33;101435.88;5123435;28;8829;-74
2021/05/27 07:21:53;;;;;;;;;15.60;15.60;;;;;29.58;38.17;101434.06;5113149;28;8907;-73
2021/05/27 07:24:48;;;;;;;;;16.00;16.00;;;;;29.74;38.04;101435.31;5096405;28;8821;-73
2021/05/27 07:27:45;;;;;;;;;14.40;14.40;;;;;29.88;38.31;101432.09;5107176;28;8928;-74
2021/05/27 07:30:41;;;;;;;;;18.20;18.20;;;;;29.83;39.27;101432.66;5112243;28;9539;-75
2021/05/27 07:33:19;;;;;;;;;15.60;14.80;;;;;29.79;37.83;101426.22;5097932;28;8833;-75
2021/05/27 07:35:55;;;;;;;;;15.00;14.60;;;;;30.13;38.30;101432.25;5114231;28;8841;-75
2021/05/27 07:38:24;;;;;;;;;14.60;14.60;;;;;30.11;36.54;101431.91;5114340;28;8853;-75
2021/05/27 07:40:52;;;;;;;;;17.80;17.80;;;;;30.10;36.88;101423.81;5114257;28;8873;-75
2021/05/27 07:43:21;;;;;;;;;15.60;15.60;;;;;30.23;34.93;101429.59;5114247;28;8833;-75
2021/05/27 07:45:51;;;;;;;;;20.40;19.60;;;;;30.23;35.57;101426.72;5096409;28;8850;-75
2021/05/27 07:48:22;;;;;;;;;14.40;14.40;;;;;30.24;35.29;101431.19;5114070;28;8830;-76
2021/05/27 07:50:50;;;;;;;;;16.20;16.20;;;;;30.07;35.31;101425.50;5114122;28;8876;-75
2021/05/27 07:53:20;;;;;;;;;13.20;13.20;;;;;30.17;34.84;101421.56;5113989;28;9543;-75
2021/05/27 07:55:52;;;;;;;;;13.80;13.60;;;;;30.23;34.75;101423.88;5113844;28;8842;-75
2021/05/27 07:58:20;;;;;;;;;16.00;16.00;;;;;29.97;34.97;101429.41;5113843;28;8861;-74
2021/05/27 08:00:50;;;;;;;;;17.60;17.60;;;;;30.24;35.90;101414.88;5113633;28;8853;-74
2021/05/27 08:03:20;;;;;;;;;13.80;13.40;;;;;30.29;33.77;101413.50;5113948;28;8845;-74
2021/05/27 08:05:48;;;;;;;;;11.00;11.00;;;;;30.74;32.62;101419.16;5080127;28;8842;-75
2021/05/27 08:08:16;;;;;;;;;11.00;11.00;;;;;30.71;32.80;101420.88;5113932;28;9610;-74
2021/05/27 08:10:46;;;;;;;;;13.00;13.00;;;;;30.89;31.75;101416.66;5113864;28;8857;-74
2021/05/27 08:13:16;;;;;;;;;10.40;10.40;;;;;31.04;31.91;101417.03;5096099;28;8830;-74
2021/05/27 08:15:45;;;;;;;;;7.60;7.60;;;;;31.32;28.94;101413.31;5113786;28;8833;-74
2021/05/27 08:18:13;;;;;;;;;7.80;7.80;;;;;30.92;29.78;101421.50;5113815;28;8849;-74
2021/05/27 08:20:42;;;;;;;;;10.00;10.00;;;;;30.94;30.16;101416.13;5113563;28;8856;-74
2021/05/27 08:23:12;;;;;;;;;10.60;10.60;;;;;31.15;29.41;101406.09;5113487;28;8833;-72
2021/05/27 08:25:47;;;;;;;;;10.40;10.40;;;;;30.90;29.07;101406.84;5113459;28;8848;-75
2021/05/27 08:28:16;;;;;;;;;11.00;11.00;;;;;30.97;31.46;101418.06;5112188;28;8864;-73
2021/05/27 08:30:46;;;;;;;;;12.60;12.60;;;;;30.94;31.51;101407.56;5113727;28;8838;-73
2021/05/27 08:33:18;;;;;;;;;12.60;12.60;;;;;30.57;32.75;101401.28;5113798;28;8964;-73
2021/05/27 08:35:51;;;;;;;;;13.40;13.40;;;;;31.19;32.02;101398.97;5096562;28;8825;-74
2021/05/27 08:38:18;;;;;;;;;10.80;10.80;;;;;31.34;31.72;101402.22;5113325;28;9578;-75
2021/05/27 08:40:46;;;;;;;;;12.80;12.40;;;;;31.72;32.02;101405.03;5113595;28;8937;-74
2021/05/27 08:43:14;;;;;;;;;11.20;11.20;;;;;31.83;31.50;101409.63;5113777;28;8853;-74
2021/05/27 08:46:06;;;;;;;;;13.20;13.20;;;;;31.99;30.03;101410.25;5113413;28;8848;-74
2021/05/27 08:48:33;;;;;;;;;13.20;13.20;;;;;31.95;29.96;101398.13;5113798;28;8873;-73
2021/05/27 08:51:04;;;;;;;;;14.00;14.00;;;;;31.57;30.13;101405.97;5116348;28;8856;-74
2021/05/27 08:53:34;;;;;;;;;11.00;11.00;;;;;31.83;29.93;101412.47;5114764;28;8972;-74
2021/05/27 08:56:30;;;;;;;;;7.40;7.40;;;;;31.62;30.70;101402.53;5111848;28;9660;-73
2021/05/27 08:58:58;;;;;;;;;8.80;8.80;;;;;31.41;29.29;101390.56;5090576;28;8835;-73
2021/05/27 09:02:06;;;;;;;;;13.00;12.40;;;;;30.96;31.54;101394.41;5092058;28;8924;-73
2021/05/27 09:05:15;;;;;;;;;9.60;9.60;;;;;30.84;31.77;101400.13;5113052;28;8835;-74
2021/05/27 09:08:33;;;;;;;;;13.60;13.60;;;;;31.29;31.32;101393.44;5112966;28;8902;-73
2021/05/27 09:11:35;;;;;;;;;11.20;11.20;;;;;31.84;29.97;101391.19;5107986;28;8848;-74
2021/05/27 09:14:04;;;;;;;;;13.20;13.20;;;;;31.77;29.47;101392.25;5131187;27;8835;-75
2021/05/27 09:17:00;;;;;;;;;10.20;10.20;;;;;31.73;30.15;101386.59;5120005;27;8862;-73
2021/05/27 09:20:19;;;;;;;;;11.40;11.40;;;;;31.47;29.83;101385.06;5126889;27;8866;-74
2021/05/27 09:23:17;;;;;;;;;14.20;12.60;;;;;31.21;31.39;101375.69;5140510;27;8881;-74
2021/05/27 09:26:15;;;;;;;;;7.60;7.60;;;;;31.18;31.09;101388.03;5148691;27;8831;-75
2021/05/27 09:29:14;;;;;;;;;15.60;14.40;;;;;31.70;31.32;101381.81;5139499;27;8951;-73
2021/05/27 09:32:11;;;;;;;;;15.20;15.20;;;;;31.67;31.55;101377.03;5129739;27;8829;-73
2021/05/27 09:35:11;;;;;;;;;14.60;14.60;;;;;31.79;32.16;101369.69;5106338;27;8881;-73
2021/05/27 09:38:12;;;;;;;;;15.60;15.60;;;;;31.25;31.00;101373.53;5134334;27;9669;-74
2021/05/27 09:41:20;;;;;;;;;12.00;12.00;;;;;30.15;31.92;101361.31;5106541;28;8848;-73
2021/05/27 09:44:19;;;;;;;;;13.80;13.80;;;;;31.26;30.96;101373.06;5131807;27;8827;-75
2021/05/27 09:46:55;;;;;;;;;13.00;13.00;;;;;31.80;29.37;101374.94;5126890;27;8899;-75
2021/05/27 09:49:24;;;;;;;;;12.00;12.00;;;;;31.85;29.65;101372.78;5126102;27;8839;-76
2021/05/27 09:52:21;;;;;;;;;15.60;15.60;;;;;32.34;30.34;101376.69;5123495;27;8869;-76
2021/05/27 09:55:19;;;;;;;;;11.00;11.00;;;;;32.70;29.58;101374.56;5135868;27;8835;-76
2021/05/27 09:58:22;;;;;;;;;12.20;12.20;;;;;32.59;28.95;101381.50;5140559;27;8844;-76
2021/05/27 10:00:53;;;;;;;;;7.40;6.80;;;;;32.91;28.13;101377.41;5125373;27;9557;-75
2021/05/27 10:03:49;;;;;;;;;14.60;13.60;;;;;32.94;28.03;101372.78;5122542;27;8877;-75
2021/05/27 10:06:45;;;;;;;;;10.00;10.00;;;;;33.03;28.99;101367.09;5131759;27;8887;-74
2021/05/27 10:09:40;;;;;;;;;11.40;11.40;;;;;32.74;28.44;101376.00;5123239;27;8857;-74
2021/05/27 10:12:39;;;;;;;;;6.60;6.60;;;;;32.53;28.46;101359.66;5109962;28;8837;-75
2021/05/27 10:15:35;;;;;;;;;9.00;9.00;;;;;32.60;29.58;101367.97;5111942;28;8868;-76
2021/05/27 10:18:21;;;;;;;;;8.60;8.60;;;;;32.85;29.53;101361.31;5110244;28;8879;-76
2021/05/27 10:21:17;;;;;;;;;14.80;14.80;;;;;32.54;30.70;101355.53;5098081;28;8842;-76
2021/05/27 10:24:13;;;;;;;;;10.60;10.60;;;;;33.13;28.00;101351.56;5106697;28;8893;-75
2021/05/27 10:27:09;;;;;;;;;11.60;11.60;;;;;33.20;27.67;101344.72;5094426;28;8862;-76
2021/05/27 10:30:08;;;;;;;;;13.60;13.60;;;;;33.62;29.04;101342.13;5098725;28;8952;-76
2021/05/27 10:33:14;;;;;;;;;11.80;11.80;;;;;32.61;29.68;101347.47;5111313;28;8845;-75
2021/05/27 10:36:11;;;;;;;;;15.20;13.80;;;;;32.82;29.65;101353.59;5103710;28;8839;-77
2021/05/27 10:39:07;;;;;;;;;9.00;9.00;;;;;32.81;26.91;101352.00;5101390;28;8909;-75
2021/05/27 10:42:03;;;;;;;;;10.20;10.20;;;;;32.50;27.44;101335.63;5103050;28;8827;-76
2021/05/27 10:45:09;;;;;;;;;11.40;11.40;;;;;32.30;27.74;101341.69;5102827;28;8843;-75
2021/05/27 10:48:14;;;;;;;;;15.20;11.80;;;;;31.82;29.82;101337.28;5108900;28;8825;-75
2021/05/27 10:51:23;;;;;;;;;10.40;10.40;;;;;31.08;30.80;101338.56;5101352;28;8872;-76
2021/05/27 10:53:55;;;;;;;;;14.00;14.00;;;;;31.02;31.69;101339.59;5113573;28;8813;-78
2021/05/27 10:56:54;;;;;;;;;13.00;13.00;;;;;30.62;32.91;101340.78;5114743;28;8841;-79
2021/05/27 10:59:34;;;;;;;;;13.00;13.00;;;;;30.14;32.66;101333.25;5101247;28;8898;-77
2021/05/27 11:02:29;;;;;;;;;13.00;13.00;;;;;30.01;33.38;101336.00;5098708;28;8837;-77
2021/05/27 11:05:25;;;;;;;;;12.40;12.40;;;;;29.83;33.79;101332.88;5121977;28;8826;-77
2021/05/27 11:08:21;;;;;;;;;16.20;16.20;;;;;29.93;34.47;101325.25;5109790;28;8857;-78
2021/05/27 11:11:58;;;;;;;;;17.20;17.20;;;;;29.75;34.11;101320.03;5109756;27;8823;-76
2021/05/27 11:14:53;;;;;;;;;15.20;15.20;;;;;29.52;34.74;101318.19;5008295;28;8834;-77
2021/05/27 11:18:09;;;;;;;;;16.40;16.40;;;;;29.61;35.43;101321.25;5036032;28;9046;-76
2021/05/27 11:21:52;;;;;;;;;16.20;16.20;;;;;29.52;35.01;101321.88;5126230;27;8819;-76
2021/05/27 11:24:35;;;;;;;;;19.20;19.20;;;;;29.73;34.61;101320.50;5115131;27;8847;-76
2021/05/27 11:27:27;;;;;;;;;16.00;16.00;;;;;29.66;35.87;101317.03;5134475;27;8843;-76
2021/05/27 11:30:33;;;;;;;;;15.60;15.60;;;;;29.83;35.10;101312.91;5133424;27;8819;-77
2021/05/27 11:33:32;;;;;;;;;23.80;23.20;;;;;29.88;35.98;101310.28;5116642;27;8862;-76
2021/05/27 11:36:27;;;;;;;;;19.60;19.60;;;;;30.16;35.17;101310.78;5129084;27;8831;-77
2021/05/27 11:38:58;;;;;;;;;18.20;18.20;;;;;30.62;33.87;101300.81;5116965;27;8835;-76
2021/05/27 11:41:56;;;;;;;;;18.20;18.20;;;;;30.96;33.76;101305.88;5117425;27;8917;-76
2021/05/27 11:45:03;;;;;;;;;17.60;17.60;;;;;30.77;34.08;101300.41;5129861;27;8938;-76
2021/05/27 11:51:20;;;;;;;;;19.40;19.40;;;;;30.61;34.09;101299.22;5117485;27;8842;-76
2021/05/27 11:54:15;;;;;;;;;20.20;20.20;;;;;30.51;34.95;101300.34;5118787;27;8897;-77
2021/05/27 11:57:11;;;;;;;;;20.60;19.60;;;;;30.17;35.09;101300.97;5133379;27;8831;-75
2021/05/27 12:00:09;;;;;;;;;17.80;17.80;;;;;30.12;35.34;101308.00;5110024;27;8920;-77
2021/05/27 12:03:04;;;;;;;;;18.60;18.60;;;;;30.36;34.91;101305.66;5133580;27;8835;-75
2021/05/27 12:06:00;;;;;;;;;16.40;16.40;;;;;30.31;34.24;101294.03;5119755;27;8857;-77
2021/05/27 12:08:56;;;;;;;;;14.80;14.80;;;;;30.14;34.82;101288.41;5134096;27;8898;-76
2021/05/27 12:11:32;;;;;;;;;18.00;18.00;;;;;29.82;34.88;101294.19;5133886;27;9619;-75
2021/05/27 12:14:01;;;;;;;;;14.20;14.20;;;;;29.63;35.11;101295.94;5134772;27;8881;-74
2021/05/27 12:16:37;;;;;;;;;19.20;18.80;;;;;29.83;34.20;101292.97;5117250;27;8831;-74
2021/05/27 12:19:52;;;;;;;;;17.20;17.20;;;;;29.68;34.27;101289.69;5122029;27;8839;-75
2021/05/27 12:22:55;;;;;;;;;18.40;18.40;;;;;29.21;35.33;101289.25;5133485;27;8835;-74
2021/05/27 12:25:53;;;;;;;;;17.00;17.00;;;;;29.45;35.33;101281.34;5132765;27;9615;-74
2021/05/27 12:28:27;;;;;;;;;18.80;18.80;;;;;29.50;35.52;101280.81;5133548;27;8828;-75
2021/05/27 12:30:57;;;;;;;;;17.00;17.00;;;;;29.69;34.53;101270.53;5115117;27;8870;-74
2021/05/27 12:34:05;;;;;;;;;18.20;18.20;;;;;29.83;34.00;101270.94;5132660;27;8820;-74
2021/05/27 12:36:50;;;;;;;;;18.20;18.20;;;;;29.97;34.93;101260.38;5134075;27;8831;-75
2021/05/27 12:39:46;;;;;;;;;16.40;15.80;;;;;30.16;34.82;101265.94;5119121;27;8925;-74
2021/05/27 12:42:14;;;;;;;;;16.00;16.00;;;;;30.29;33.86;101257.41;5139186;27;9009;-75
2021/05/27 12:44:51;;;;;;;;;16.80;16.80;;;;;30.80;32.49;101259.50;5148674;27;8858;-76
2021/05/27 12:48:04;;;;;;;;;15.80;15.80;;;;;31.73;33.44;101263.66;5151588;27;8816;-75
2021/05/27 12:51:04;;;;;;;;;16.00;16.00;;;;;32.60;31.11;101244.88;5148197;27;8851;-74
2021/05/27 12:53:48;;;;;;;;;15.00;15.00;;;;;32.74;30.86;101252.06;5135486;27;8839;-75
2021/05/27 12:56:32;;;;;;;;;18.80;18.80;;;;;32.84;30.82;101248.75;5119815;27;8823;-75
2021/05/27 12:59:32;;;;;;;;;14.20;14.20;;;;;32.89;28.51;101245.28;5124363;27;8878;-75
2021/05/27 13:02:02;;;;;;;;;16.40;15.40;;;;;33.38;29.34;101243.69;5137790;27;8919;-74
2021/05/27 13:04:34;;;;;;;;;14.20;14.20;;;;;33.35;28.23;101241.72;5137623;27;8823;-74
2021/05/27 13:07:30;;;;;;;;;15.20;15.20;;;;;33.07;29.01;101232.31;5136289;27;8839;-75